createdAt,value
2022-08-31T00:00:36.848Z,13.66
2022-08-31T00:01:36.865Z,13.69
2022-08-31T00:02:36.962Z,13.69
2022-08-31T00:03:36.903Z,13.70
2022-08-31T00:04:36.980Z,13.73
2022-08-31T00:05:36.935Z,13.92
2022-08-31T00:06:36.943Z,13.91
2022-08-31T00:07:36.966Z,13.92
2022-08-31T00:08:36.972Z,14.00
2022-08-31T00:09:37.005Z,14.03
2022-08-31T00:10:37.268Z,14.04
2022-08-31T00:11:37.994Z,14.03
2022-08-31T00:12:37.035Z,14.21
2022-08-31T00:13:37.051Z,14.24
2022-08-31T00:14:37.066Z,14.21
2022-08-31T00:15:37.083Z,14.25
2022-08-31T00:16:37.154Z,14.21
2022-08-31T00:17:37.113Z,14.27
2022-08-31T00:18:37.131Z,14.24
2022-08-31T00:19:37.148Z,14.29
2022-08-31T00:20:37.160Z,14.27
2022-08-31T00:21:37.173Z,14.17
2022-08-31T00:22:37.191Z,14.15
2022-08-31T00:23:37.205Z,14.22
2022-08-31T00:24:37.222Z,14.27
2022-08-31T00:25:37.241Z,14.24
2022-08-31T00:26:37.253Z,14.22
2022-08-31T00:27:37.272Z,14.02
2022-08-31T00:28:37.287Z,13.81
2022-08-31T00:29:37.301Z,13.63
2022-08-31T00:30:37.319Z,13.62
2022-08-31T00:31:37.457Z,13.73
2022-08-31T00:32:37.349Z,13.70
2022-08-31T00:33:37.364Z,13.77
2022-08-31T00:34:37.377Z,13.81
2022-08-31T00:35:37.396Z,13.85
2022-08-31T00:36:37.411Z,13.84
2022-08-31T00:37:37.426Z,13.89
2022-08-31T00:38:37.495Z,13.88
2022-08-31T00:39:37.469Z,13.85
2022-08-31T00:40:44.208Z,13.92
2022-08-31T00:41:37.486Z,13.81
2022-08-31T00:42:37.505Z,13.81
2022-08-31T00:43:37.520Z,13.82
2022-08-31T00:44:37.533Z,13.73
2022-08-31T00:45:37.619Z,13.81
2022-08-31T00:46:37.570Z,13.84
2022-08-31T00:47:37.584Z,13.75
2022-08-31T00:48:37.598Z,13.81
2022-08-31T00:49:37.617Z,13.73
2022-08-31T00:50:37.731Z,13.77
2022-08-31T00:51:37.647Z,13.79
2022-08-31T00:52:38.145Z,13.69
2022-08-31T00:53:37.682Z,13.63
2022-08-31T00:54:37.690Z,13.69
2022-08-31T00:55:37.711Z,13.69
2022-08-31T00:56:37.718Z,13.70
2022-08-31T00:57:37.737Z,13.69
2022-08-31T00:58:37.754Z,13.67
2022-08-31T00:59:37.765Z,13.75
2022-08-31T01:00:37.812Z,13.69
2022-08-31T01:01:37.876Z,13.62
2022-08-31T01:02:37.863Z,13.63
2022-08-31T01:03:37.835Z,13.66
2022-08-31T01:04:37.849Z,13.63
2022-08-31T01:05:37.867Z,13.64
2022-08-31T01:06:37.878Z,13.64
2022-08-31T01:07:37.889Z,13.64
2022-08-31T01:08:37.905Z,13.73
2022-08-31T01:09:37.919Z,13.63
2022-08-31T01:10:37.932Z,13.75
2022-08-31T01:11:37.956Z,13.73
2022-08-31T01:12:37.966Z,13.75
2022-08-31T01:13:37.982Z,13.66
2022-08-31T01:14:37.997Z,13.63
2022-08-31T01:15:38.016Z,13.70
2022-08-31T01:16:38.082Z,13.70
2022-08-31T01:17:38.043Z,13.63
2022-08-31T01:18:38.058Z,13.64
2022-08-31T01:19:38.075Z,13.69
2022-08-31T01:20:38.091Z,13.77
2022-08-31T01:21:38.103Z,13.70
2022-08-31T01:22:38.122Z,13.63
2022-08-31T01:23:38.135Z,13.67
2022-08-31T01:24:38.149Z,13.77
2022-08-31T01:25:38.163Z,13.70
2022-08-31T01:26:38.177Z,13.82
2022-08-31T01:27:38.193Z,13.79
2022-08-31T01:28:38.209Z,13.77
2022-08-31T01:29:38.225Z,13.71
2022-08-31T01:30:38.244Z,13.81
2022-08-31T01:31:38.345Z,13.78
2022-08-31T01:32:38.272Z,13.75
2022-08-31T01:33:38.288Z,13.81
2022-08-31T01:34:38.302Z,13.71
2022-08-31T01:35:38.318Z,13.71
2022-08-31T01:36:38.335Z,13.64
2022-08-31T01:37:38.350Z,13.73
2022-08-31T01:38:38.378Z,13.75
2022-08-31T01:39:38.379Z,13.66
2022-08-31T01:40:38.464Z,13.62
2022-08-31T01:41:38.412Z,13.59
2022-08-31T01:42:38.427Z,13.48
2022-08-31T01:43:38.440Z,13.41
2022-08-31T01:44:38.458Z,13.42
2022-08-31T01:45:38.470Z,13.46
2022-08-31T01:46:38.569Z,13.41
2022-08-31T01:47:38.501Z,13.39
2022-08-31T01:48:41.437Z,13.39
2022-08-31T01:49:38.541Z,13.41
2022-08-31T01:50:38.551Z,13.46
2022-08-31T01:51:38.664Z,13.49
2022-08-31T01:52:38.579Z,13.48
2022-08-31T01:53:38.592Z,13.51
2022-08-31T01:54:38.609Z,13.52
2022-08-31T01:55:38.624Z,13.49
2022-08-31T01:56:38.641Z,13.57
2022-08-31T01:57:38.653Z,13.60
2022-08-31T01:58:38.673Z,13.60
2022-08-31T01:59:38.686Z,13.51
2022-08-31T02:00:38.774Z,13.44
2022-08-31T02:01:38.905Z,13.39
2022-08-31T02:02:38.787Z,13.33
2022-08-31T02:03:38.751Z,13.30
2022-08-31T02:04:38.765Z,13.29
2022-08-31T02:05:38.774Z,13.26
2022-08-31T02:06:38.794Z,13.28
2022-08-31T02:07:38.807Z,13.29
2022-08-31T02:08:38.831Z,13.22
2022-08-31T02:09:38.842Z,13.20
2022-08-31T02:10:38.851Z,13.28
2022-08-31T02:11:38.866Z,13.29
2022-08-31T02:12:38.884Z,13.33
2022-08-31T02:13:38.897Z,13.38
2022-08-31T02:14:38.915Z,13.48
2022-08-31T02:15:38.932Z,13.45
2022-08-31T02:16:39.016Z,13.41
2022-08-31T02:17:38.961Z,13.49
2022-08-31T02:18:38.973Z,13.45
2022-08-31T02:19:38.998Z,13.46
2022-08-31T02:20:39.008Z,13.48
2022-08-31T02:21:39.017Z,13.45
2022-08-31T02:22:39.039Z,13.54
2022-08-31T02:23:39.080Z,13.51
2022-08-31T02:24:39.068Z,13.46
2022-08-31T02:25:39.090Z,13.41
2022-08-31T02:26:39.135Z,13.44
2022-08-31T02:27:39.125Z,13.39
2022-08-31T02:28:39.125Z,13.30
2022-08-31T02:29:39.138Z,13.22
2022-08-31T02:30:39.152Z,13.28
2022-08-31T02:31:39.267Z,13.32
2022-08-31T02:32:39.184Z,13.30
2022-08-31T02:33:39.200Z,13.26
2022-08-31T02:34:39.216Z,13.26
2022-08-31T02:35:39.226Z,13.29
2022-08-31T02:36:39.244Z,13.38
2022-08-31T02:37:39.257Z,13.41
2022-08-31T02:38:39.276Z,13.38
2022-08-31T02:39:39.291Z,13.36
2022-08-31T02:40:39.462Z,13.39
2022-08-31T02:41:39.318Z,13.39
2022-08-31T02:42:53.732Z,13.44
2022-08-31T02:43:39.352Z,13.39
2022-08-31T02:44:39.362Z,13.45
2022-08-31T02:45:39.383Z,13.42
2022-08-31T02:46:39.499Z,13.51
2022-08-31T02:47:39.412Z,13.52
2022-08-31T02:48:39.428Z,13.46
2022-08-31T02:49:39.440Z,13.46
2022-08-31T02:50:39.459Z,13.51
2022-08-31T02:51:39.470Z,13.51
2022-08-31T02:52:39.485Z,13.48
2022-08-31T02:53:39.506Z,13.46
2022-08-31T02:54:39.522Z,13.51
2022-08-31T02:55:39.534Z,13.52
2022-08-31T02:56:39.647Z,13.49
2022-08-31T02:57:39.558Z,13.46
2022-08-31T02:58:39.579Z,13.57
2022-08-31T02:59:39.594Z,13.59
2022-08-31T03:00:39.619Z,13.55
2022-08-31T03:01:39.663Z,13.54
2022-08-31T03:02:39.663Z,13.60
2022-08-31T03:03:39.656Z,13.63
2022-08-31T03:04:39.672Z,13.64
2022-08-31T03:05:39.690Z,13.64
2022-08-31T03:06:39.699Z,13.64
2022-08-31T03:07:39.715Z,13.62
2022-08-31T03:08:39.734Z,13.64
2022-08-31T03:09:39.749Z,13.69
2022-08-31T03:10:39.761Z,13.64
2022-08-31T03:11:39.780Z,13.48
2022-08-31T03:12:39.788Z,13.51
2022-08-31T03:13:39.817Z,13.48
2022-08-31T03:14:39.822Z,13.45
2022-08-31T03:15:39.867Z,13.48
2022-08-31T03:16:39.848Z,13.44
2022-08-31T03:17:39.865Z,13.52
2022-08-31T03:18:39.882Z,13.44
2022-08-31T03:19:39.897Z,13.49
2022-08-31T03:20:39.914Z,13.49
2022-08-31T03:21:39.932Z,13.57
2022-08-31T03:22:39.954Z,13.59
2022-08-31T03:23:39.969Z,13.54
2022-08-31T03:24:39.970Z,13.62
2022-08-31T03:25:40.005Z,13.59
2022-08-31T03:26:40.003Z,13.54
2022-08-31T03:27:40.023Z,13.44
2022-08-31T03:28:40.032Z,13.51
2022-08-31T03:29:40.049Z,13.51
2022-08-31T03:30:40.204Z,13.42
2022-08-31T03:31:40.143Z,13.54
2022-08-31T03:32:40.097Z,13.44
2022-08-31T03:33:40.116Z,13.44
2022-08-31T03:34:40.129Z,13.46
2022-08-31T03:35:40.142Z,13.48
2022-08-31T03:36:40.152Z,13.36
2022-08-31T03:37:40.171Z,13.38
2022-08-31T03:38:40.184Z,13.32
2022-08-31T03:39:40.301Z,13.29
2022-08-31T03:40:40.279Z,13.29
2022-08-31T03:41:40.234Z,13.29
2022-08-31T03:42:40.247Z,13.30
2022-08-31T03:43:40.266Z,13.36
2022-08-31T03:44:40.277Z,13.26
2022-08-31T03:45:40.291Z,13.17
2022-08-31T03:46:40.345Z,13.17
2022-08-31T03:47:44.559Z,13.08
2022-08-31T03:48:40.337Z,13.20
2022-08-31T03:49:40.350Z,13.25
2022-08-31T03:50:40.367Z,13.15
2022-08-31T03:51:40.383Z,13.20
2022-08-31T03:52:40.395Z,13.20
2022-08-31T03:53:40.416Z,13.29
2022-08-31T03:54:40.427Z,13.30
2022-08-31T03:55:40.443Z,13.26
2022-08-31T03:56:40.456Z,13.36
2022-08-31T03:57:40.478Z,13.32
2022-08-31T03:58:40.490Z,13.36
2022-08-31T03:59:40.503Z,13.30
2022-08-31T04:00:40.514Z,13.28
2022-08-31T04:01:40.567Z,13.19
2022-08-31T04:02:40.641Z,13.22
2022-08-31T04:03:40.562Z,13.17
2022-08-31T04:04:40.577Z,13.19
2022-08-31T04:05:40.592Z,13.22
2022-08-31T04:06:40.615Z,13.14
2022-08-31T04:07:42.767Z,13.10
2022-08-31T04:08:40.640Z,13.22
2022-08-31T04:09:40.750Z,13.11
2022-08-31T04:10:40.673Z,13.11
2022-08-31T04:11:44.362Z,13.10
2022-08-31T04:12:40.701Z,13.10
2022-08-31T04:13:40.726Z,13.08
2022-08-31T04:14:40.775Z,13.20
2022-08-31T04:15:40.829Z,13.26
2022-08-31T04:16:40.757Z,13.28
2022-08-31T04:17:40.769Z,13.14
2022-08-31T04:18:40.789Z,13.19
2022-08-31T04:19:40.804Z,13.28
2022-08-31T04:20:40.817Z,13.26
2022-08-31T04:21:40.835Z,13.25
2022-08-31T04:22:40.844Z,13.33
2022-08-31T04:23:40.861Z,13.26
2022-08-31T04:24:40.874Z,13.29
2022-08-31T04:25:40.993Z,13.33
2022-08-31T04:26:40.973Z,13.26
2022-08-31T04:27:40.925Z,13.17
2022-08-31T04:28:40.949Z,13.17
2022-08-31T04:29:40.991Z,13.12
2022-08-31T04:30:41.051Z,13.22
2022-08-31T04:31:40.988Z,13.30
2022-08-31T04:32:40.992Z,13.29
2022-08-31T04:33:41.011Z,13.29
2022-08-31T04:34:41.028Z,13.26
2022-08-31T04:35:41.042Z,13.30
2022-08-31T04:36:41.062Z,13.33
2022-08-31T04:37:45.871Z,13.28
2022-08-31T04:38:41.092Z,13.26
2022-08-31T04:39:51.002Z,13.15
2022-08-31T04:40:41.173Z,13.12
2022-08-31T04:41:41.130Z,13.12
2022-08-31T04:42:41.148Z,13.05
2022-08-31T04:43:41.159Z,12.95
2022-08-31T04:44:41.177Z,12.96
2022-08-31T04:45:41.281Z,12.93
2022-08-31T04:46:41.211Z,12.86
2022-08-31T04:47:41.218Z,12.92
2022-08-31T04:48:41.234Z,12.95
2022-08-31T04:49:41.246Z,12.96
2022-08-31T04:50:42.943Z,13.00
2022-08-31T04:51:41.278Z,13.00
2022-08-31T04:52:41.295Z,13.04
2022-08-31T04:53:41.316Z,13.03
2022-08-31T04:54:41.326Z,13.03
2022-08-31T04:55:41.355Z,13.01
2022-08-31T04:56:41.355Z,13.08
2022-08-31T04:57:41.372Z,12.96
2022-08-31T04:58:41.385Z,12.97
2022-08-31T04:59:41.399Z,12.90
2022-08-31T05:00:41.413Z,12.92
2022-08-31T05:01:42.826Z,12.79
2022-08-31T05:02:41.518Z,12.86
2022-08-31T05:03:41.458Z,12.82
2022-08-31T05:04:41.470Z,12.79
2022-08-31T05:05:41.487Z,12.77
2022-08-31T05:06:41.506Z,12.79
2022-08-31T05:07:41.513Z,12.72
2022-08-31T05:08:41.528Z,12.75
2022-08-31T05:09:41.545Z,12.85
2022-08-31T05:10:41.561Z,12.85
2022-08-31T05:11:41.576Z,12.92
2022-08-31T05:12:41.590Z,12.85
2022-08-31T05:13:41.604Z,12.89
2022-08-31T05:14:41.623Z,12.93
2022-08-31T05:15:41.676Z,12.96
2022-08-31T05:16:41.660Z,12.96
2022-08-31T05:17:41.659Z,13.00
2022-08-31T05:18:41.681Z,12.95
2022-08-31T05:19:41.694Z,13.01
2022-08-31T05:20:41.713Z,13.10
2022-08-31T05:21:41.723Z,13.07
2022-08-31T05:22:41.739Z,13.08
2022-08-31T05:23:41.752Z,13.14
2022-08-31T05:24:41.767Z,12.90
2022-08-31T05:25:41.785Z,12.82
2022-08-31T05:26:42.232Z,12.82
2022-08-31T05:27:41.807Z,12.68
2022-08-31T05:28:41.821Z,12.70
2022-08-31T05:29:41.837Z,12.70
2022-08-31T05:30:41.886Z,12.75
2022-08-31T05:31:41.867Z,12.74
2022-08-31T05:32:41.877Z,12.72
2022-08-31T05:33:41.999Z,12.68
2022-08-31T05:34:41.910Z,12.77
2022-08-31T05:35:41.922Z,12.78
2022-08-31T05:36:41.940Z,12.79
2022-08-31T05:37:41.955Z,12.79
2022-08-31T05:38:41.974Z,12.78
2022-08-31T05:39:41.988Z,12.75
2022-08-31T05:40:42.116Z,12.77
2022-08-31T05:41:42.016Z,12.74
2022-08-31T05:42:42.024Z,12.78
2022-08-31T05:43:42.041Z,12.74
2022-08-31T05:44:42.055Z,12.75
2022-08-31T05:45:42.070Z,12.60
2022-08-31T05:46:42.241Z,12.62
2022-08-31T05:47:42.104Z,12.65
2022-08-31T05:48:42.115Z,12.60
2022-08-31T05:49:42.128Z,12.67
2022-08-31T05:50:42.141Z,12.75
2022-08-31T05:51:42.161Z,12.78
2022-08-31T05:52:42.170Z,12.79
2022-08-31T05:53:42.287Z,12.72
2022-08-31T05:54:42.201Z,12.70
2022-08-31T05:55:42.222Z,12.70
2022-08-31T05:56:42.961Z,12.74
2022-08-31T05:57:42.252Z,12.72
2022-08-31T05:58:42.263Z,12.68
2022-08-31T05:59:42.275Z,12.79
2022-08-31T06:00:42.288Z,12.82
2022-08-31T06:01:42.396Z,12.90
2022-08-31T06:02:42.319Z,12.87
2022-08-31T06:03:42.331Z,12.89
2022-08-31T06:04:42.398Z,12.90
2022-08-31T06:05:42.429Z,12.96
2022-08-31T06:06:42.374Z,12.85
2022-08-31T06:07:42.394Z,12.89
2022-08-31T06:08:42.418Z,13.04
2022-08-31T06:09:42.418Z,12.93
2022-08-31T06:10:42.429Z,13.04
2022-08-31T06:11:42.486Z,12.97
2022-08-31T06:12:42.460Z,13.10
2022-08-31T06:13:42.478Z,13.08
2022-08-31T06:14:45.612Z,13.08
2022-08-31T06:15:42.825Z,13.05
2022-08-31T06:16:42.581Z,13.08
2022-08-31T06:17:42.530Z,13.19
2022-08-31T06:18:42.550Z,13.15
2022-08-31T06:19:42.563Z,13.19
2022-08-31T06:20:42.575Z,13.08
2022-08-31T06:21:49.931Z,13.11
2022-08-31T06:22:42.611Z,13.08
2022-08-31T06:23:42.621Z,12.89
2022-08-31T06:24:42.636Z,12.92
2022-08-31T06:25:42.653Z,12.93
2022-08-31T06:26:42.665Z,12.90
2022-08-31T06:27:42.679Z,12.92
2022-08-31T06:28:42.693Z,12.93
2022-08-31T06:29:42.713Z,12.97
2022-08-31T06:30:54.735Z,12.96
2022-08-31T06:31:42.853Z,12.96
2022-08-31T06:32:42.750Z,13.08
2022-08-31T06:33:42.770Z,13.08
2022-08-31T06:34:42.799Z,13.15
2022-08-31T06:35:42.798Z,13.17
2022-08-31T06:36:42.850Z,13.25
2022-08-31T06:37:42.829Z,13.14
2022-08-31T06:38:42.853Z,13.12
2022-08-31T06:39:44.405Z,13.19
2022-08-31T06:40:42.940Z,13.19
2022-08-31T06:41:42.885Z,13.11
2022-08-31T06:42:42.898Z,13.10
2022-08-31T06:43:42.921Z,13.05
2022-08-31T06:44:42.932Z,12.97
2022-08-31T06:45:42.949Z,12.85
2022-08-31T06:46:46.547Z,12.72
2022-08-31T06:47:42.973Z,12.79
2022-08-31T06:48:42.991Z,12.85
2022-08-31T06:49:43.002Z,12.93
2022-08-31T06:50:43.022Z,12.95
2022-08-31T06:51:43.029Z,12.97
2022-08-31T06:52:43.050Z,13.07
2022-08-31T06:53:43.062Z,13.20
2022-08-31T06:54:43.076Z,13.08
2022-08-31T06:55:43.099Z,13.08
2022-08-31T06:56:43.102Z,13.22
2022-08-31T06:57:43.118Z,13.14
2022-08-31T06:58:43.133Z,13.30
2022-08-31T06:59:43.147Z,13.33
2022-08-31T07:00:43.161Z,13.44
2022-08-31T07:01:43.419Z,13.48
2022-08-31T07:02:43.234Z,13.59
2022-08-31T07:03:43.207Z,13.63
2022-08-31T07:04:43.221Z,13.69
2022-08-31T07:05:43.244Z,13.77
2022-08-31T07:06:43.252Z,13.87
2022-08-31T07:07:43.266Z,13.85
2022-08-31T07:08:43.283Z,13.92
2022-08-31T07:09:43.307Z,13.97
2022-08-31T07:10:43.313Z,13.96
2022-08-31T07:11:44.759Z,13.96
2022-08-31T07:12:43.337Z,14.03
2022-08-31T07:13:43.357Z,13.99
2022-08-31T07:14:43.467Z,14.06
2022-08-31T07:15:43.388Z,14.02
2022-08-31T07:16:43.525Z,13.99
2022-08-31T07:17:43.416Z,14.03
2022-08-31T07:18:43.437Z,14.14
2022-08-31T07:19:44.902Z,14.03
2022-08-31T07:20:43.461Z,14.06
2022-08-31T07:21:43.478Z,14.12
2022-08-31T07:22:43.496Z,14.00
2022-08-31T07:23:43.509Z,13.89
2022-08-31T07:24:43.524Z,13.75
2022-08-31T07:25:43.534Z,13.87
2022-08-31T07:26:43.550Z,13.89
2022-08-31T07:27:43.569Z,13.91
2022-08-31T07:28:43.581Z,14.03
2022-08-31T07:29:43.604Z,14.02
2022-08-31T07:30:43.633Z,14.00
2022-08-31T07:31:43.633Z,14.06
2022-08-31T07:32:43.644Z,14.03
2022-08-31T07:33:43.654Z,14.02
2022-08-31T07:34:43.675Z,14.15
2022-08-31T07:35:43.684Z,13.84
2022-08-31T07:36:43.700Z,13.51
2022-08-31T07:37:43.715Z,13.39
2022-08-31T07:38:43.731Z,13.32
2022-08-31T07:39:43.747Z,13.32
2022-08-31T07:40:43.846Z,13.29
2022-08-31T07:41:43.780Z,13.17
2022-08-31T07:42:43.894Z,13.12
2022-08-31T07:43:43.812Z,13.26
2022-08-31T07:44:53.352Z,13.26
2022-08-31T07:45:43.883Z,13.25
2022-08-31T07:46:43.851Z,12.93
2022-08-31T07:47:43.866Z,12.90
2022-08-31T07:48:43.882Z,12.83
2022-08-31T07:49:43.900Z,12.86
2022-08-31T07:50:43.911Z,13.11
2022-08-31T07:51:43.926Z,13.00
2022-08-31T07:52:43.943Z,12.85
2022-08-31T07:53:43.959Z,12.85
2022-08-31T07:54:43.970Z,12.85
2022-08-31T07:55:43.990Z,13.01
2022-08-31T07:56:43.999Z,13.07
2022-08-31T07:57:44.048Z,13.11
2022-08-31T07:58:44.036Z,13.07
2022-08-31T07:59:44.105Z,13.22
2022-08-31T08:00:44.059Z,13.29
2022-08-31T08:01:44.115Z,13.33
2022-08-31T08:02:44.114Z,13.46
2022-08-31T08:03:44.114Z,13.66
2022-08-31T08:04:44.127Z,13.75
2022-08-31T08:05:44.138Z,13.69
2022-08-31T08:06:44.150Z,13.75
2022-08-31T08:07:44.166Z,13.84
2022-08-31T08:08:44.177Z,13.87
2022-08-31T08:09:44.197Z,13.88
2022-08-31T08:10:46.637Z,13.95
2022-08-31T08:11:44.224Z,14.03
2022-08-31T08:12:44.241Z,14.00
2022-08-31T08:13:44.259Z,13.60
2022-08-31T08:14:44.286Z,13.51
2022-08-31T08:15:44.380Z,13.60
2022-08-31T08:16:44.357Z,13.71
2022-08-31T08:17:44.312Z,13.73
2022-08-31T08:18:44.329Z,13.97
2022-08-31T08:19:44.346Z,14.03
2022-08-31T08:20:44.361Z,14.18
2022-08-31T08:21:44.375Z,14.21
2022-08-31T08:22:55.594Z,14.22
2022-08-31T08:23:44.402Z,14.29
2022-08-31T08:24:44.418Z,14.28
2022-08-31T08:25:44.436Z,14.35
2022-08-31T08:26:44.449Z,14.29
2022-08-31T08:27:44.462Z,14.14
2022-08-31T08:28:44.478Z,13.73
2022-08-31T08:29:44.495Z,13.70
2022-08-31T08:30:44.520Z,13.70
2022-08-31T08:31:44.602Z,13.75
2022-08-31T08:32:44.541Z,13.84
2022-08-31T08:33:44.561Z,13.75
2022-08-31T08:34:44.570Z,13.77
2022-08-31T08:35:44.587Z,13.91
2022-08-31T08:36:44.601Z,13.91
2022-08-31T08:37:57.705Z,13.92
2022-08-31T08:38:44.632Z,13.99
2022-08-31T08:39:44.648Z,14.03
2022-08-31T08:40:44.783Z,14.07
2022-08-31T08:41:44.677Z,14.22
2022-08-31T08:42:44.692Z,14.35
2022-08-31T08:43:48.001Z,14.29
2022-08-31T08:44:44.723Z,14.40
2022-08-31T08:45:44.777Z,14.55
2022-08-31T08:46:44.801Z,14.50
2022-08-31T08:47:44.844Z,14.57
2022-08-31T08:48:44.782Z,14.64
2022-08-31T08:49:44.795Z,14.86
2022-08-31T08:50:44.866Z,14.99
2022-08-31T08:51:44.827Z,15.32
2022-08-31T08:52:44.853Z,15.35
2022-08-31T08:53:44.860Z,15.59
2022-08-31T08:54:44.872Z,15.67
2022-08-31T08:55:44.885Z,15.71
2022-08-31T08:56:44.907Z,15.78
2022-08-31T08:57:44.924Z,15.67
2022-08-31T08:58:44.936Z,15.89
2022-08-31T08:59:44.948Z,15.59
2022-08-31T09:00:44.966Z,15.60
2022-08-31T09:01:45.067Z,15.72
2022-08-31T09:02:45.052Z,15.67
2022-08-31T09:03:45.013Z,15.89
2022-08-31T09:04:45.025Z,15.65
2022-08-31T09:05:45.043Z,15.59
2022-08-31T09:06:46.116Z,15.53
2022-08-31T09:07:45.079Z,15.53
2022-08-31T09:08:45.095Z,15.74
2022-08-31T09:09:45.122Z,15.57
2022-08-31T09:10:45.125Z,15.67
2022-08-31T09:11:45.138Z,15.53
2022-08-31T09:12:45.166Z,15.46
2022-08-31T09:13:45.167Z,15.51
2022-08-31T09:14:45.187Z,15.10
2022-08-31T09:15:45.258Z,15.23
2022-08-31T09:16:45.222Z,14.75
2022-08-31T09:17:45.236Z,14.73
2022-08-31T09:18:45.253Z,14.50
2022-08-31T09:19:45.271Z,14.51
2022-08-31T09:20:45.678Z,14.58
2022-08-31T09:21:45.294Z,14.81
2022-08-31T09:22:45.316Z,15.07
2022-08-31T09:23:45.327Z,15.03
2022-08-31T09:24:45.342Z,15.20
2022-08-31T09:25:45.361Z,15.41
2022-08-31T09:26:45.379Z,15.67
2022-08-31T09:27:45.396Z,15.64
2022-08-31T09:28:45.408Z,15.59
2022-08-31T09:29:45.425Z,15.86
2022-08-31T09:30:45.680Z,16.12
2022-08-31T09:31:45.600Z,16.57
2022-08-31T09:32:45.466Z,16.66
2022-08-31T09:33:45.488Z,16.46
2022-08-31T09:34:45.498Z,16.76
2022-08-31T09:35:45.521Z,16.66
2022-08-31T09:36:45.534Z,17.15
2022-08-31T09:37:45.564Z,17.46
2022-08-31T09:38:45.565Z,17.41
2022-08-31T09:39:45.580Z,17.22
2022-08-31T09:40:45.651Z,17.25
2022-08-31T09:41:45.610Z,16.89
2022-08-31T09:42:45.630Z,17.03
2022-08-31T09:43:45.642Z,16.98
2022-08-31T09:44:45.660Z,17.04
2022-08-31T09:45:45.712Z,16.88
2022-08-31T09:46:45.692Z,17.30
2022-08-31T09:47:45.714Z,17.03
2022-08-31T09:48:45.731Z,17.07
2022-08-31T09:49:45.743Z,16.82
2022-08-31T09:50:45.757Z,16.70
2022-08-31T09:51:45.780Z,17.01
2022-08-31T09:52:45.789Z,16.88
2022-08-31T09:53:45.812Z,16.71
2022-08-31T09:54:47.329Z,16.73
2022-08-31T09:55:45.839Z,17.03
2022-08-31T09:56:45.857Z,17.30
2022-08-31T09:57:45.873Z,17.59
2022-08-31T09:58:45.891Z,17.99
2022-08-31T09:59:45.916Z,18.15
2022-08-31T10:00:45.922Z,17.52
2022-08-31T10:01:46.119Z,17.36
2022-08-31T10:02:45.957Z,17.54
2022-08-31T10:03:45.971Z,17.48
2022-08-31T10:04:46.051Z,17.70
2022-08-31T10:05:46.008Z,17.04
2022-08-31T10:06:46.020Z,17.31
2022-08-31T10:07:46.037Z,17.44
2022-08-31T10:08:46.056Z,17.58
2022-08-31T10:09:46.075Z,17.77
2022-08-31T10:10:46.089Z,17.70
2022-08-31T10:11:46.110Z,18.05
2022-08-31T10:12:46.125Z,18.25
2022-08-31T10:13:46.142Z,18.36
2022-08-31T10:14:46.157Z,18.42
2022-08-31T10:15:46.219Z,19.06
2022-08-31T10:16:46.194Z,19.16
2022-08-31T10:17:46.208Z,19.11
2022-08-31T10:18:46.223Z,18.67
2022-08-31T10:19:46.237Z,18.67
2022-08-31T10:20:46.261Z,18.15
2022-08-31T10:21:46.271Z,18.44
2022-08-31T10:22:46.293Z,18.62
2022-08-31T10:23:46.312Z,18.98
2022-08-31T10:24:46.357Z,18.42
2022-08-31T10:25:46.341Z,18.52
2022-08-31T10:26:46.358Z,19.10
2022-08-31T10:27:46.376Z,19.80
2022-08-31T10:28:46.583Z,20.02
2022-08-31T10:29:46.410Z,20.26
2022-08-31T10:30:46.499Z,20.52
2022-08-31T10:31:48.500Z,20.67
2022-08-31T10:32:46.460Z,20.72
2022-08-31T10:33:46.481Z,20.76
2022-08-31T10:34:46.499Z,20.59
2022-08-31T10:35:46.517Z,20.35
2022-08-31T10:36:46.536Z,20.43
2022-08-31T10:37:46.555Z,20.28
2022-08-31T10:38:46.571Z,20.26
2022-08-31T10:39:46.589Z,20.13
2022-08-31T10:40:46.713Z,19.80
2022-08-31T10:41:46.625Z,19.83
2022-08-31T10:42:46.641Z,20.29
2022-08-31T10:43:46.764Z,20.61
2022-08-31T10:44:49.909Z,20.88
2022-08-31T10:45:46.744Z,20.92
2022-08-31T10:46:46.773Z,20.87
2022-08-31T10:47:46.739Z,19.69
2022-08-31T10:48:47.285Z,19.92
2022-08-31T10:49:46.776Z,18.88
2022-08-31T10:50:46.793Z,19.07
2022-08-31T10:51:46.813Z,19.18
2022-08-31T10:52:46.826Z,19.40
2022-08-31T10:53:46.846Z,19.23
2022-08-31T10:54:46.866Z,19.78
2022-08-31T10:55:46.883Z,19.62
2022-08-31T10:56:46.898Z,19.78
2022-08-31T10:57:46.921Z,19.32
2022-08-31T10:58:46.947Z,19.83
2022-08-31T10:59:46.964Z,19.62
2022-08-31T11:00:46.984Z,19.22
2022-08-31T11:01:47.049Z,19.19
2022-08-31T11:02:47.014Z,19.76
2022-08-31T11:03:47.036Z,19.94
2022-08-31T11:04:47.155Z,19.66
2022-08-31T11:05:50.574Z,19.71
2022-08-31T11:06:47.091Z,19.44
2022-08-31T11:07:47.108Z,18.50
2022-08-31T11:08:47.126Z,18.60
2022-08-31T11:09:47.145Z,18.69
2022-08-31T11:10:47.167Z,19.28
2022-08-31T11:11:47.180Z,19.41
2022-08-31T11:12:47.198Z,20.03
2022-08-31T11:13:49.298Z,19.99
2022-08-31T11:14:47.239Z,19.99
2022-08-31T11:15:47.311Z,19.46
2022-08-31T11:16:47.275Z,19.11
2022-08-31T11:17:47.301Z,19.29
2022-08-31T11:18:47.315Z,19.39
2022-08-31T11:19:47.331Z,19.77
2022-08-31T11:20:47.351Z,20.06
2022-08-31T11:21:47.366Z,20.50
2022-08-31T11:22:47.389Z,20.61
2022-08-31T11:23:47.407Z,20.43
2022-08-31T11:24:47.420Z,20.54
2022-08-31T11:25:47.449Z,20.85
2022-08-31T11:26:47.460Z,21.17
2022-08-31T11:27:47.479Z,20.87
2022-08-31T11:28:47.497Z,21.17
2022-08-31T11:29:47.516Z,21.53
2022-08-31T11:30:50.876Z,20.97
2022-08-31T11:31:47.593Z,20.62
2022-08-31T11:32:47.581Z,20.97
2022-08-31T11:34:14.173Z,20.92
2022-08-31T11:34:47.619Z,20.66
2022-08-31T11:35:47.630Z,20.13
2022-08-31T11:36:47.654Z,19.65
2022-08-31T11:37:47.673Z,19.96
2022-08-31T11:38:47.692Z,20.08
2022-08-31T11:39:47.708Z,20.72
2022-08-31T11:40:47.839Z,21.13
2022-08-31T11:41:47.750Z,20.91
2022-08-31T11:42:47.769Z,21.07
2022-08-31T11:43:47.785Z,20.69
2022-08-31T11:44:47.803Z,21.06
2022-08-31T11:45:47.864Z,21.58
2022-08-31T11:46:47.845Z,21.24
2022-08-31T11:47:47.964Z,20.84
2022-08-31T11:48:47.887Z,20.47
2022-08-31T11:49:47.916Z,20.29
2022-08-31T11:50:47.923Z,20.20
2022-08-31T11:51:47.942Z,19.81
2022-08-31T11:52:47.963Z,19.71
2022-08-31T11:53:47.984Z,19.68
2022-08-31T11:54:47.997Z,19.92
2022-08-31T11:55:48.020Z,20.28
2022-08-31T11:56:48.039Z,20.95
2022-08-31T11:57:48.058Z,21.09
2022-08-31T11:58:48.072Z,21.12
2022-08-31T11:59:48.096Z,21.22
2022-08-31T12:00:52.189Z,21.22
2022-08-31T12:01:48.135Z,20.98
2022-08-31T12:02:48.334Z,20.16
2022-08-31T12:03:48.175Z,20.43
2022-08-31T12:04:48.194Z,20.98
2022-08-31T12:05:48.299Z,20.02
2022-08-31T12:06:48.270Z,19.96
2022-08-31T12:07:48.266Z,20.20
2022-08-31T12:08:48.270Z,19.92
2022-08-31T12:09:48.293Z,20.20
2022-08-31T12:10:48.305Z,20.42
2022-08-31T12:11:48.346Z,20.92
2022-08-31T12:12:48.351Z,20.58
2022-08-31T12:13:48.367Z,20.57
2022-08-31T12:14:48.386Z,20.79
2022-08-31T12:15:48.522Z,21.21
2022-08-31T12:16:48.423Z,21.42
2022-08-31T12:17:48.442Z,21.14
2022-08-31T12:18:48.462Z,21.16
2022-08-31T12:19:48.482Z,21.38
2022-08-31T12:20:48.510Z,21.71
2022-08-31T12:21:48.523Z,21.56
2022-08-31T12:22:48.542Z,21.98
2022-08-31T12:23:48.564Z,22.24
2022-08-31T12:24:49.414Z,21.83
2022-08-31T12:25:48.600Z,21.22
2022-08-31T12:26:48.623Z,21.16
2022-08-31T12:27:48.642Z,21.04
2022-08-31T12:28:48.660Z,20.64
2022-08-31T12:29:48.684Z,21.25
2022-08-31T12:30:48.819Z,21.25
2022-08-31T12:31:48.717Z,20.67
2022-08-31T12:32:48.740Z,20.80
2022-08-31T12:33:48.760Z,21.10
2022-08-31T12:34:48.779Z,21.52
2022-08-31T12:35:48.802Z,21.65
2022-08-31T12:36:48.939Z,21.37
2022-08-31T12:37:48.841Z,21.65
2022-08-31T12:38:48.860Z,21.32
2022-08-31T12:39:48.879Z,21.64
2022-08-31T12:40:49.017Z,21.13
2022-08-31T12:41:48.920Z,20.97
2022-08-31T12:42:48.940Z,21.04
2022-08-31T12:43:48.976Z,21.58
2022-08-31T12:44:48.980Z,21.74
2022-08-31T12:45:49.049Z,21.37
2022-08-31T12:46:49.115Z,21.49
2022-08-31T12:47:49.039Z,20.61
2022-08-31T12:48:49.161Z,20.08
2022-08-31T12:49:49.079Z,20.84
2022-08-31T12:50:49.102Z,21.49
2022-08-31T12:51:49.125Z,21.21
2022-08-31T12:52:49.144Z,20.95